createdAt,value
2023-05-05T00:01:30.650Z,8.18
2023-05-05T00:03:57.268Z,9.15
2023-05-05T00:06:23.863Z,6.83
2023-05-05T00:08:50.731Z,6.57
2023-05-05T00:11:17.292Z,7.25
2023-05-05T00:13:43.832Z,9.35
2023-05-05T00:16:10.555Z,6.88
2023-05-05T00:18:40.177Z,8.70
2023-05-05T00:21:06.893Z,6.38
2023-05-05T00:23:33.491Z,6.28
2023-05-05T00:26:00.026Z,8.70
2023-05-05T00:28:29.056Z,7.50
2023-05-05T00:30:58.381Z,8.17
2023-05-05T00:33:25.806Z,7.07
2023-05-05T00:35:52.400Z,6.50
2023-05-05T00:38:18.968Z,8.02
2023-05-05T00:40:45.504Z,8.43
2023-05-05T00:43:13.026Z,7.37
2023-05-05T00:45:43.803Z,6.38
2023-05-05T00:48:10.481Z,8.38
2023-05-05T00:50:37.572Z,7.13
2023-05-05T00:53:06.680Z,7.47
2023-05-05T00:55:34.234Z,7.30
2023-05-05T00:58:02.990Z,7.53
2023-05-05T01:00:30.919Z,6.03
2023-05-05T01:02:58.027Z,6.50
2023-05-05T01:05:27.376Z,5.85
2023-05-05T01:08:09.542Z,5.33
2023-05-05T01:10:41.117Z,6.00
2023-05-05T01:13:16.886Z,10.38
2023-05-05T01:15:49.864Z,5.35
2023-05-05T01:18:28.566Z,6.93
2023-05-05T01:21:14.424Z,7.03
2023-05-05T01:23:49.767Z,7.05
2023-05-05T01:26:38.741Z,5.80
2023-05-05T01:29:51.176Z,6.25
2023-05-05T01:32:24.362Z,6.63
2023-05-05T01:35:01.596Z,9.23
2023-05-05T01:37:33.398Z,6.88
2023-05-05T01:40:05.115Z,6.18
2023-05-05T01:42:33.974Z,7.47
2023-05-05T01:45:06.237Z,5.68
2023-05-05T01:47:40.406Z,6.73
2023-05-05T01:50:08.648Z,7.00
2023-05-05T01:52:38.033Z,5.45
2023-05-05T01:55:06.684Z,7.55
2023-05-05T01:57:33.723Z,6.40
2023-05-05T02:00:04.641Z,5.90
2023-05-05T02:02:35.193Z,7.63
2023-05-05T02:05:03.382Z,6.70
2023-05-05T02:07:32.333Z,5.55
2023-05-05T02:10:00.649Z,7.28
2023-05-05T02:12:29.096Z,4.37
2023-05-05T02:15:01.617Z,5.78
2023-05-05T02:17:29.531Z,8.23
2023-05-05T02:19:59.018Z,7.18
2023-05-05T02:22:28.099Z,7.75
2023-05-05T02:24:55.101Z,7.63
2023-05-05T02:27:25.637Z,6.68
2023-05-05T02:29:58.717Z,5.55
2023-05-05T02:32:33.688Z,6.20
2023-05-05T02:35:10.934Z,5.85
2023-05-05T02:37:39.317Z,6.73
2023-05-05T02:40:12.739Z,9.57
2023-05-05T02:42:41.625Z,6.45
2023-05-05T02:45:12.923Z,6.32
2023-05-05T02:47:39.540Z,8.00
2023-05-05T02:50:08.193Z,7.50
2023-05-05T02:52:35.778Z,7.00
2023-05-05T02:55:04.159Z,7.97
2023-05-05T02:57:37.620Z,7.30
2023-05-05T03:00:10.353Z,7.78
2023-05-05T03:02:45.393Z,6.83
2023-05-05T03:05:21.529Z,8.35
2023-05-05T03:08:13.817Z,8.88
2023-05-05T03:10:56.762Z,6.05
2023-05-05T03:13:26.434Z,5.95
2023-05-05T03:15:54.804Z,6.80
2023-05-05T03:18:23.319Z,6.53
2023-05-05T03:20:51.140Z,6.65
2023-05-05T03:23:20.958Z,7.10
2023-05-05T03:25:49.824Z,6.97
2023-05-05T03:28:17.933Z,6.53
2023-05-05T03:30:44.664Z,5.15
2023-05-05T03:33:12.053Z,5.57
2023-05-05T03:35:38.602Z,6.13
2023-05-05T03:38:05.287Z,6.40
2023-05-05T03:40:42.900Z,6.93
2023-05-05T03:43:11.372Z,5.28
2023-05-05T03:45:38.061Z,4.95
2023-05-05T03:48:09.563Z,4.65
2023-05-05T03:50:36.664Z,4.25
2023-05-05T03:53:03.265Z,5.87
2023-05-05T03:55:29.849Z,6.40
2023-05-05T03:57:56.400Z,7.70
2023-05-05T04:00:23.035Z,6.25
2023-05-05T04:02:52.234Z,3.22
2023-05-05T04:05:19.907Z,4.13
2023-05-05T04:07:46.587Z,5.88
2023-05-05T04:10:13.187Z,5.90
2023-05-05T04:12:39.770Z,5.38
2023-05-05T04:15:06.956Z,6.10
2023-05-05T04:17:33.545Z,5.93
2023-05-05T04:20:00.338Z,7.28
2023-05-05T04:22:26.946Z,4.70
2023-05-05T04:24:53.629Z,6.88
2023-05-05T04:27:20.173Z,5.07
2023-05-05T04:29:51.585Z,5.07
2023-05-05T04:32:18.175Z,4.72
2023-05-05T04:34:44.802Z,5.63
2023-05-05T04:37:16.207Z,5.93
2023-05-05T04:39:44.952Z,4.57
2023-05-05T04:42:11.510Z,4.47
2023-05-05T04:44:38.325Z,5.28
2023-05-05T04:47:04.998Z,4.05
2023-05-05T04:49:32.107Z,6.38
2023-05-05T04:51:58.749Z,6.80
2023-05-05T04:54:25.664Z,5.43
2023-05-05T04:56:54.721Z,5.45
2023-05-05T04:59:21.347Z,6.38
2023-05-05T05:01:47.955Z,4.55
2023-05-05T05:04:18.485Z,5.13
2023-05-05T05:06:46.149Z,4.63
2023-05-05T05:09:13.279Z,4.15
2023-05-05T05:11:40.656Z,5.68
2023-05-05T05:14:07.303Z,6.47
2023-05-05T05:16:33.954Z,6.07
2023-05-05T05:19:01.796Z,6.63
2023-05-05T05:21:28.705Z,5.35
2023-05-05T05:23:55.392Z,4.45
2023-05-05T05:26:22.250Z,6.13
2023-05-05T05:28:48.972Z,5.38
2023-05-05T05:31:18.072Z,6.67
2023-05-05T05:33:44.696Z,7.32
2023-05-05T05:36:11.340Z,6.40
2023-05-05T05:38:37.889Z,6.18
2023-05-05T05:41:07.800Z,5.32
2023-05-05T05:43:34.393Z,6.00
2023-05-05T05:46:03.642Z,5.78
2023-05-05T05:48:30.341Z,5.18
2023-05-05T05:50:57.198Z,5.55
2023-05-05T05:53:23.800Z,6.20
2023-05-05T05:55:50.381Z,5.47
2023-05-05T05:58:18.455Z,5.93
2023-05-05T06:00:45.070Z,5.00
2023-05-05T06:03:12.121Z,5.75
2023-05-05T06:05:38.968Z,6.18
2023-05-05T06:08:05.559Z,5.27
2023-05-05T06:10:32.360Z,6.28
2023-05-05T06:12:59.233Z,4.13
2023-05-05T06:15:26.035Z,6.88
2023-05-05T06:17:52.709Z,5.72
2023-05-05T06:20:21.794Z,5.80
2023-05-05T06:22:48.479Z,4.75
2023-05-05T06:25:15.025Z,7.65
2023-05-05T06:27:41.678Z,6.72
2023-05-05T06:30:09.752Z,7.32
2023-05-05T06:32:36.540Z,7.43
2023-05-05T06:35:03.321Z,8.35
2023-05-05T06:37:32.270Z,11.13
2023-05-05T06:39:58.849Z,6.95
2023-05-05T06:42:25.421Z,9.48
2023-05-05T06:44:52.032Z,7.33
2023-05-05T06:47:18.584Z,7.22
2023-05-05T06:49:45.145Z,8.13
2023-05-05T06:52:11.914Z,11.70
2023-05-05T06:54:38.521Z,10.25
2023-05-05T06:57:05.132Z,10.20
2023-05-05T06:59:32.533Z,12.95
2023-05-05T07:01:59.607Z,12.30
2023-05-05T07:04:26.926Z,14.15
2023-05-05T07:06:55.267Z,13.93
2023-05-05T07:09:21.975Z,11.50
2023-05-05T07:11:48.564Z,12.75
2023-05-05T07:14:17.477Z,20.13
2023-05-05T07:16:44.064Z,27.33
2023-05-05T07:19:10.716Z,19.40
2023-05-05T07:21:37.279Z,24.23
2023-05-05T07:24:06.544Z,21.02
2023-05-05T07:26:33.279Z,21.58
2023-05-05T07:28:59.876Z,16.33
2023-05-05T07:31:26.788Z,16.00
2023-05-05T07:33:53.587Z,16.40
2023-05-05T07:36:20.504Z,16.25
2023-05-05T07:38:47.066Z,14.48
2023-05-05T07:41:15.960Z,16.00
2023-05-05T07:43:44.488Z,12.70
2023-05-05T07:46:12.064Z,15.93
2023-05-05T07:48:41.630Z,18.95
2023-05-05T07:51:10.950Z,15.27
2023-05-05T07:53:37.586Z,15.10
2023-05-05T07:56:04.290Z,13.55
2023-05-05T07:58:30.962Z,13.83
2023-05-05T08:01:01.394Z,13.13
2023-05-05T08:03:28.165Z,20.55
2023-05-05T08:05:55.581Z,19.42
2023-05-05T08:08:25.081Z,15.02
2023-05-05T08:10:53.214Z,13.27
2023-05-05T08:13:20.271Z,12.70
2023-05-05T08:15:47.038Z,14.15
2023-05-05T08:18:14.638Z,15.65
2023-05-05T08:20:41.323Z,13.00
2023-05-05T08:23:07.935Z,14.20
2023-05-05T08:25:34.532Z,12.30
2023-05-05T08:28:01.184Z,12.77
2023-05-05T08:30:27.891Z,11.00
2023-05-05T08:32:57.197Z,15.80
2023-05-05T08:35:26.208Z,13.73
2023-05-05T08:37:52.855Z,15.30
2023-05-05T08:40:26.452Z,13.18
2023-05-05T08:42:53.034Z,11.70
2023-05-05T08:45:21.815Z,15.50
2023-05-05T08:47:48.453Z,17.37
2023-05-05T08:50:18.177Z,13.82
2023-05-05T08:52:47.641Z,15.02
2023-05-05T08:55:26.777Z,14.60
2023-05-05T08:57:58.011Z,15.07
2023-05-05T09:00:26.515Z,13.57
2023-05-05T09:02:56.412Z,9.65
2023-05-05T09:05:23.357Z,11.88
2023-05-05T09:07:50.726Z,12.65
2023-05-05T09:10:17.779Z,17.98
2023-05-05T09:12:44.671Z,17.10
2023-05-05T09:15:15.311Z,12.57
2023-05-05T09:17:42.498Z,17.70
2023-05-05T09:20:10.387Z,14.57
2023-05-05T09:22:41.200Z,11.50
2023-05-05T09:25:12.165Z,11.20
2023-05-05T09:27:41.368Z,10.75
2023-05-05T09:30:09.794Z,9.73
2023-05-05T09:32:48.285Z,8.65
2023-05-05T09:35:16.327Z,13.60
2023-05-05T09:37:45.875Z,10.03
2023-05-05T09:40:19.310Z,12.40
2023-05-05T09:42:46.761Z,11.70
2023-05-05T09:45:19.140Z,11.10
2023-05-05T09:47:49.184Z,16.05
2023-05-05T09:50:19.352Z,9.93
2023-05-05T09:53:06.530Z,13.82
2023-05-05T09:55:33.167Z,11.73
2023-05-05T09:58:30.859Z,10.23
2023-05-05T10:00:58.707Z,12.25
2023-05-05T10:03:26.101Z,10.20
2023-05-05T10:05:57.724Z,14.30
2023-05-05T10:08:31.645Z,11.68
2023-05-05T10:11:04.113Z,12.00
2023-05-05T10:13:35.949Z,12.68
2023-05-05T10:16:06.906Z,12.83
2023-05-05T10:18:34.020Z,15.98
2023-05-05T10:21:03.402Z,15.85
2023-05-05T10:23:49.597Z,31.23
2023-05-05T10:26:19.287Z,17.63
2023-05-05T10:28:56.440Z,16.97
2023-05-05T10:31:49.997Z,11.32
2023-05-05T10:34:45.814Z,12.77
2023-05-05T10:37:13.201Z,10.07
2023-05-05T10:39:39.902Z,16.55
2023-05-05T10:42:06.930Z,16.67
2023-05-05T10:44:34.090Z,13.57
2023-05-05T10:47:01.946Z,10.93
2023-05-05T10:49:39.802Z,15.70
2023-05-05T10:52:18.277Z,18.73
2023-05-05T10:54:57.694Z,13.63
2023-05-05T10:57:27.026Z,15.48
2023-05-05T10:59:56.596Z,18.65
2023-05-05T11:02:24.314Z,27.70
2023-05-05T11:05:22.618Z,18.83
2023-05-05T11:07:51.442Z,19.20
2023-05-05T11:10:23.771Z,20.45
2023-05-05T11:13:00.177Z,12.70
2023-05-05T11:15:30.304Z,18.20
2023-05-05T11:18:08.178Z,14.68
2023-05-05T11:20:39.790Z,13.60
2023-05-05T11:23:06.652Z,13.10
2023-05-05T11:25:40.742Z,15.80
2023-05-05T11:28:11.165Z,16.02
2023-05-05T11:30:56.369Z,21.80
2023-05-05T11:33:26.950Z,18.87
2023-05-05T11:35:59.322Z,17.27
2023-05-05T11:39:03.765Z,14.85
2023-05-05T11:41:33.258Z,19.08
2023-05-05T11:44:16.930Z,15.07
2023-05-05T11:46:52.821Z,17.13
2023-05-05T11:49:33.069Z,14.18
2023-05-05T11:52:03.691Z,13.68
2023-05-05T11:54:30.992Z,15.07
2023-05-05T11:57:05.042Z,16.05
2023-05-05T11:59:32.444Z,15.40
2023-05-05T12:01:59.557Z,17.77
2023-05-05T12:04:26.472Z,14.15
2023-05-05T12:06:55.391Z,15.63
2023-05-05T12:09:23.031Z,15.63
2023-05-05T12:11:58.319Z,12.33
2023-05-05T12:14:25.746Z,13.35
2023-05-05T12:17:03.517Z,14.00
2023-05-05T12:19:33.410Z,17.05
2023-05-05T12:22:01.489Z,16.17
2023-05-05T12:24:28.469Z,11.80
2023-05-05T12:26:55.062Z,15.55
2023-05-05T12:29:29.235Z,15.73
2023-05-05T12:31:56.065Z,12.60
2023-05-05T12:34:26.400Z,14.25
2023-05-05T12:36:53.316Z,17.67
2023-05-05T12:39:19.907Z,16.75
2023-05-05T12:41:49.674Z,16.05
2023-05-05T12:44:16.635Z,14.40
2023-05-05T12:46:47.507Z,16.80
2023-05-05T12:49:14.575Z,17.80
2023-05-05T12:51:54.174Z,19.67
2023-05-05T12:54:20.762Z,20.75
2023-05-05T12:56:50.256Z,20.52
2023-05-05T12:59:22.679Z,20.63
2023-05-05T13:01:57.044Z,18.27
2023-05-05T13:04:27.974Z,20.98
2023-05-05T13:07:14.351Z,16.90
2023-05-05T13:09:43.281Z,20.65
2023-05-05T13:12:12.212Z,22.20
2023-05-05T13:14:39.942Z,16.57
2023-05-05T13:17:09.230Z,15.77
2023-05-05T13:19:41.710Z,14.55
2023-05-05T13:22:09.990Z,15.88
2023-05-05T13:24:49.743Z,18.58
2023-05-05T13:27:18.019Z,15.17
2023-05-05T13:29:44.587Z,13.65
2023-05-05T13:32:11.227Z,15.35
2023-05-05T13:34:39.211Z,19.10
2023-05-05T13:37:06.165Z,15.82
2023-05-05T13:39:32.842Z,17.70
2023-05-05T13:41:59.477Z,19.25
2023-05-05T13:44:26.086Z,14.30
2023-05-05T13:46:52.787Z,17.25
2023-05-05T13:49:20.199Z,16.75
2023-05-05T13:51:47.237Z,16.53
2023-05-05T13:54:14.035Z,18.27
2023-05-05T13:56:40.789Z,14.35
2023-05-05T13:59:07.638Z,16.88
2023-05-05T14:01:34.291Z,13.65
2023-05-05T14:04:02.911Z,18.77
2023-05-05T14:06:31.318Z,16.70
2023-05-05T14:08:57.957Z,14.65
2023-05-05T14:11:24.599Z,13.05
2023-05-05T14:13:52.085Z,13.60
2023-05-05T14:16:21.407Z,18.47
2023-05-05T14:18:48.017Z,17.80
2023-05-05T14:21:14.775Z,20.83
2023-05-05T14:23:41.387Z,17.33
2023-05-05T14:26:09.103Z,21.50
2023-05-05T14:28:38.116Z,19.90
2023-05-05T14:31:04.896Z,23.48
2023-05-05T14:33:31.482Z,19.55
2023-05-05T14:35:58.178Z,18.92
2023-05-05T14:38:24.871Z,18.00
2023-05-05T14:40:53.854Z,21.17
2023-05-05T14:43:20.764Z,21.38
2023-05-05T14:45:47.467Z,13.05
2023-05-05T14:48:16.709Z,17.50
2023-05-05T14:50:43.373Z,16.92
2023-05-05T14:53:10.034Z,19.27
2023-05-05T14:55:37.228Z,15.32
2023-05-05T14:58:06.039Z,22.33
2023-05-05T15:00:32.687Z,16.70
2023-05-05T15:02:59.351Z,18.13
2023-05-05T15:05:26.050Z,18.20
2023-05-05T15:07:52.659Z,21.48
2023-05-05T15:10:21.233Z,17.75
2023-05-05T15:12:48.668Z,17.63
2023-05-05T15:15:18.772Z,17.33
2023-05-05T15:17:45.537Z,16.23
2023-05-05T15:20:12.495Z,14.88
2023-05-05T15:22:39.040Z,15.73
2023-05-05T15:25:09.581Z,18.73
2023-05-05T15:27:38.002Z,14.55
2023-05-05T15:30:06.161Z,12.90
2023-05-05T15:32:32.828Z,16.50
2023-05-05T15:34:59.412Z,15.10
2023-05-05T15:37:28.334Z,17.90
2023-05-05T15:39:58.481Z,17.27
2023-05-05T15:42:25.134Z,12.23
2023-05-05T15:44:55.163Z,11.05
2023-05-05T15:47:24.038Z,11.80
2023-05-05T15:49:50.695Z,13.55
2023-05-05T15:52:17.360Z,12.60
2023-05-05T15:54:44.065Z,11.63
2023-05-05T15:57:10.728Z,15.93
2023-05-05T15:59:37.295Z,11.75
2023-05-05T16:02:03.904Z,16.73
2023-05-05T16:04:30.652Z,13.20
2023-05-05T16:06:58.097Z,14.37
2023-05-05T16:09:24.746Z,13.70
2023-05-05T16:11:54.390Z,13.30
2023-05-05T16:14:21.204Z,16.10
2023-05-05T16:16:47.975Z,14.25
2023-05-05T16:19:14.636Z,15.33
2023-05-05T16:21:41.301Z,17.00
2023-05-05T16:24:07.993Z,12.75
2023-05-05T16:26:35.923Z,18.65
2023-05-05T16:29:02.512Z,13.57
2023-05-05T16:31:29.156Z,16.20
2023-05-05T16:33:55.829Z,27.45
2023-05-05T16:36:22.443Z,17.45
2023-05-05T16:38:49.744Z,27.92
2023-05-05T16:41:16.326Z,28.17
2023-05-05T16:43:42.952Z,14.77
2023-05-05T16:46:09.770Z,20.55
2023-05-05T16:48:36.399Z,18.17
2023-05-05T16:51:03.100Z,20.08
2023-05-05T16:53:29.884Z,14.02
2023-05-05T16:55:56.489Z,14.17
2023-05-05T16:58:23.715Z,14.90
2023-05-05T17:00:51.119Z,17.75
2023-05-05T17:03:19.031Z,14.68
2023-05-05T17:05:49.649Z,15.77
2023-05-05T17:08:19.214Z,13.37
2023-05-05T17:10:46.686Z,14.80
2023-05-05T17:13:14.423Z,13.07
2023-05-05T17:15:41.572Z,11.85
2023-05-05T17:18:08.482Z,13.43
2023-05-05T17:20:37.670Z,19.97
2023-05-05T17:23:05.000Z,16.60
2023-05-05T17:25:31.857Z,15.18
2023-05-05T17:27:58.467Z,17.10
2023-05-05T17:30:25.282Z,17.58
2023-05-05T17:32:52.108Z,20.67
2023-05-05T17:35:18.976Z,13.15
2023-05-05T17:37:45.745Z,15.82
2023-05-05T17:40:12.621Z,14.63
2023-05-05T17:42:39.251Z,18.40
2023-05-05T17:45:06.701Z,15.53
2023-05-05T17:47:33.466Z,15.70
2023-05-05T17:50:00.184Z,15.95
2023-05-05T17:52:27.067Z,13.35
2023-05-05T17:54:53.626Z,13.65
2023-05-05T17:57:22.952Z,31.63
2023-05-05T17:59:50.420Z,18.35
2023-05-05T18:02:17.124Z,15.90
2023-05-05T18:04:43.830Z,15.32
2023-05-05T18:07:12.282Z,19.00
2023-05-05T18:09:41.569Z,15.33
2023-05-05T18:12:08.170Z,16.02
2023-05-05T18:14:34.768Z,14.60
2023-05-05T18:17:01.396Z,17.35
2023-05-05T18:19:30.653Z,12.65
2023-05-05T18:22:00.177Z,16.20
2023-05-05T18:24:28.186Z,14.38
2023-05-05T18:26:54.821Z,17.70
2023-05-05T18:29:22.187Z,17.73
2023-05-05T18:31:51.977Z,18.25
2023-05-05T18:34:21.597Z,12.43
2023-05-05T18:36:51.063Z,17.75
2023-05-05T18:39:17.934Z,16.25
2023-05-05T18:41:44.633Z,12.13
2023-05-05T18:44:11.522Z,15.75
2023-05-05T18:46:38.127Z,14.77
2023-05-05T18:49:04.820Z,13.93
2023-05-05T18:51:32.240Z,13.07
2023-05-05T18:54:00.128Z,12.10
2023-05-05T18:56:27.157Z,11.18
2023-05-05T18:58:53.837Z,14.37
2023-05-05T19:01:21.002Z,13.35
2023-05-05T19:03:48.143Z,12.32
2023-05-05T19:06:15.032Z,13.77
2023-05-05T19:08:42.495Z,14.50
2023-05-05T19:11:09.340Z,12.33
2023-05-05T19:13:35.998Z,16.05
2023-05-05T19:16:02.712Z,11.43
2023-05-05T19:18:29.464Z,12.27
2023-05-05T19:20:56.120Z,14.07
2023-05-05T19:23:22.783Z,9.87
2023-05-05T19:25:52.776Z,12.98
2023-05-05T19:28:19.667Z,10.88
2023-05-05T19:30:48.565Z,11.95
2023-05-05T19:33:16.199Z,12.57
2023-05-05T19:35:43.235Z,10.90
2023-05-05T19:38:10.534Z,12.77
2023-05-05T19:40:38.248Z,14.23
2023-05-05T19:43:05.069Z,11.20
2023-05-05T19:45:31.953Z,18.45
2023-05-05T19:47:58.702Z,27.03
2023-05-05T19:50:26.782Z,23.58
2023-05-05T19:52:56.784Z,20.85
2023-05-05T19:55:23.547Z,18.90
2023-05-05T19:57:50.097Z,16.42
2023-05-05T20:00:17.330Z,19.87
2023-05-05T20:02:45.372Z,20.35
2023-05-05T20:05:16.151Z,44.90
2023-05-05T20:07:43.633Z,56.92
2023-05-05T20:10:10.675Z,56.42
2023-05-05T20:12:37.617Z,37.77
2023-05-05T20:15:04.647Z,32.88
2023-05-05T20:17:31.257Z,19.83
2023-05-05T20:19:58.118Z,18.02
2023-05-05T20:22:26.603Z,17.63
2023-05-05T20:24:55.361Z,21.33
2023-05-05T20:27:28.664Z,21.58
2023-05-05T20:29:55.439Z,25.75
2023-05-05T20:32:22.024Z,36.55
2023-05-05T20:34:51.989Z,33.92
2023-05-05T20:37:21.885Z,29.93
2023-05-05T20:39:49.113Z,24.10
2023-05-05T20:42:15.716Z,17.52
2023-05-05T20:44:42.294Z,20.38
2023-05-05T20:47:08.965Z,20.45
2023-05-05T20:49:35.759Z,21.53
2023-05-05T20:52:04.920Z,22.45
2023-05-05T20:54:34.703Z,21.52
2023-05-05T20:57:02.854Z,17.88
2023-05-05T20:59:29.522Z,20.23
2023-05-05T21:01:59.106Z,20.50
2023-05-05T21:04:25.986Z,25.77
2023-05-05T21:06:52.606Z,28.70
2023-05-05T21:09:21.406Z,37.55
2023-05-05T21:11:48.816Z,27.42
2023-05-05T21:14:17.595Z,26.33
2023-05-05T21:16:44.210Z,22.38
2023-05-05T21:19:10.870Z,23.52
2023-05-05T21:21:37.482Z,29.85
2023-05-05T21:24:08.092Z,28.20
2023-05-05T21:26:34.838Z,19.67
2023-05-05T21:29:03.963Z,18.02
2023-05-05T21:31:30.628Z,18.77
2023-05-05T21:33:57.219Z,16.02
2023-05-05T21:36:24.817Z,12.65
2023-05-05T21:38:51.578Z,10.57
2023-05-05T21:41:18.271Z,12.15
2023-05-05T21:43:44.881Z,17.25
2023-05-05T21:46:11.615Z,24.52
2023-05-05T21:48:40.012Z,25.10
2023-05-05T21:51:06.831Z,22.07
2023-05-05T21:53:37.784Z,23.30
2023-05-05T21:56:06.744Z,28.30
2023-05-05T21:58:33.332Z,22.95
2023-05-05T22:01:00.259Z,25.83
2023-05-05T22:03:27.125Z,24.20
2023-05-05T22:05:53.843Z,30.48
2023-05-05T22:08:20.584Z,24.30
2023-05-05T22:10:49.353Z,20.30
2023-05-05T22:13:15.960Z,14.27
2023-05-05T22:15:47.283Z,18.57
2023-05-05T22:18:14.826Z,17.27
2023-05-05T22:20:41.548Z,23.35
2023-05-05T22:23:10.333Z,36.30
2023-05-05T22:25:39.389Z,35.60
2023-05-05T22:28:08.112Z,33.10
2023-05-05T22:30:34.742Z,31.60
2023-05-05T22:33:01.444Z,38.17
2023-05-05T22:35:28.077Z,50.30
2023-05-05T22:37:56.900Z,43.08
2023-05-05T22:40:25.751Z,36.63
2023-05-05T22:42:54.559Z,26.27
2023-05-05T22:45:22.303Z,23.88
2023-05-05T22:47:51.694Z,14.45
2023-05-05T22:50:18.892Z,15.38
2023-05-05T22:52:45.503Z,20.00
2023-05-05T22:55:15.361Z,26.58
2023-05-05T22:57:44.393Z,66.25
2023-05-05T23:00:11.220Z,60.22
2023-05-05T23:02:38.520Z,39.13
2023-05-05T23:05:05.512Z,26.67
2023-05-05T23:07:32.333Z,15.60
2023-05-05T23:10:01.224Z,15.43
2023-05-05T23:12:27.856Z,12.40
2023-05-05T23:14:54.462Z,12.77
2023-05-05T23:17:21.180Z,12.00
2023-05-05T23:19:51.056Z,10.43
2023-05-05T23:22:17.665Z,10.05
2023-05-05T23:24:44.217Z,9.10
2023-05-05T23:27:12.651Z,9.77
2023-05-05T23:29:39.368Z,8.07
2023-05-05T23:32:06.510Z,8.55
2023-05-05T23:34:33.068Z,8.55
2023-05-05T23:36:59.641Z,9.32
2023-05-05T23:39:26.359Z,7.53
2023-05-05T23:41:55.029Z,9.50
2023-05-05T23:44:21.576Z,8.88
2023-05-05T23:46:50.621Z,9.45
2023-05-05T23:49:17.194Z,7.13
2023-05-05T23:51:43.750Z,8.90
2023-05-05T23:54:10.345Z,6.93
2023-05-05T23:56:40.811Z,8.52
2023-05-05T23:59:07.390Z,7.25
